Time;durP1;ratioP1;P1;durP2;ratioP2;P2;SDS_P1;SDS_P2;PMS_P1;PMS_P2;Temp;Humidity;BMP_temperature;BMP_pressure;BME280_temperature;BME280_humidity;BME280_pressure;Samples;Min_cycle;Max_cycle;Signal;HPM_P1;HPM_P2
2024/03/14 00:00:52;;;;;;;16.42;9.05;;;;;;;11.24;100.00;101477.56;5246746;28;20016;-75
2024/03/14 00:03:22;;;;;;;19.42;9.57;;;;;;;11.19;100.00;101477.16;5249139;28;20032;-75
2024/03/14 00:05:53;;;;;;;17.27;9.57;;;;;;;11.16;100.00;101475.66;5249900;28;20016;-74
2024/03/14 00:08:24;;;;;;;17.30;8.48;;;;;;;11.17;100.00;101469.28;5251363;28;20028;-74
2024/03/14 00:10:55;;;;;;;16.77;8.70;;;;;;;11.13;100.00;101470.59;5248144;28;20070;-75
2024/03/14 00:13:28;;;;;;;14.05;8.57;;;;;;;11.17;100.00;101473.81;5248938;28;20032;-75
2024/03/14 00:16:00;;;;;;;16.92;9.23;;;;;;;11.10;100.00;101479.81;5229904;28;20024;-74
2024/03/14 00:18:31;;;;;;;15.45;8.73;;;;;;;11.05;100.00;101483.97;5250715;28;20024;-75
2024/03/14 00:21:09;;;;;;;14.25;9.05;;;;;;;11.02;100.00;101477.03;5249481;28;20024;-75
2024/03/14 00:23:40;;;;;;;14.55;8.75;;;;;;;11.00;100.00;101487.09;5249794;28;20024;-76
2024/03/14 00:26:11;;;;;;;14.75;8.70;;;;;;;10.99;100.00;101487.22;5250654;28;20482;-75
2024/03/14 00:28:41;;;;;;;18.27;9.50;;;;;;;10.95;100.00;101491.25;5247709;28;20050;-75
2024/03/14 00:31:12;;;;;;;16.45;9.30;;;;;;;10.88;100.00;101480.25;5249198;28;20042;-76
2024/03/14 00:33:43;;;;;;;13.68;8.65;;;;;;;10.88;100.00;101477.56;5247606;28;20035;-76
2024/03/14 00:36:14;;;;;;;14.68;9.05;;;;;;;10.81;100.00;101473.81;5253369;28;20016;-76
2024/03/14 00:38:46;;;;;;;14.52;8.40;;;;;;;10.78;100.00;101479.47;5246376;28;20016;-76
2024/03/14 00:41:17;;;;;;;14.20;8.25;;;;;;;10.74;100.00;101476.25;5249105;28;20037;-76
2024/03/14 00:43:47;;;;;;;15.07;8.20;;;;;;;10.71;100.00;101486.47;5247828;28;20033;-75
2024/03/14 00:46:18;;;;;;;21.42;8.52;;;;;;;10.63;100.00;101476.47;5248799;28;20044;-76
2024/03/14 00:48:52;;;;;;;13.82;8.52;;;;;;;10.59;100.00;101478.63;5245597;28;20020;-76
2024/03/14 00:51:22;;;;;;;16.35;8.32;;;;;;;10.54;100.00;101472.88;5247646;28;20028;-75
2024/03/14 00:53:54;;;;;;;15.55;9.30;;;;;;;10.52;100.00;101468.63;5242448;28;20020;-76
2024/03/14 00:56:26;;;;;;;14.23;8.85;;;;;;;10.55;100.00;101462.97;5250236;28;20028;-76
2024/03/14 00:58:57;;;;;;;14.68;9.07;;;;;;;10.47;100.00;101465.56;5243484;28;20037;-76
2024/03/14 01:01:28;;;;;;;14.77;8.65;;;;;;;10.41;100.00;101452.75;5247776;28;20637;-74
2024/03/14 01:03:58;;;;;;;12.55;8.30;;;;;;;10.40;100.00;101459.13;5248518;28;20028;-76
2024/03/14 01:06:29;;;;;;;13.25;7.78;;;;;;;10.40;100.00;101457.28;5254700;28;20381;-75
2024/03/14 01:09:00;;;;;;;15.38;9.02;;;;;;;10.36;100.00;101447.84;5249341;28;20017;-75
2024/03/14 01:11:31;;;;;;;20.40;10.15;;;;;;;10.35;100.00;101446.16;5247835;28;20731;-75
2024/03/14 01:14:01;;;;;;;15.77;9.55;;;;;;;10.33;100.00;101448.13;5253852;28;20024;-75
2024/03/14 01:16:32;;;;;;;15.93;9.68;;;;;;;10.26;100.00;101447.06;5248473;28;20031;-75
2024/03/14 01:19:03;;;;;;;16.10;9.20;;;;;;;10.23;100.00;101441.94;5250052;28;20033;-75
2024/03/14 01:21:38;;;;;;;19.80;9.70;;;;;;;10.16;100.00;101430.16;5243437;28;20024;-75
2024/03/14 01:24:10;;;;;;;14.60;8.60;;;;;;;10.11;100.00;101430.59;5252703;28;20394;-75
2024/03/14 01:26:41;;;;;;;18.45;8.88;;;;;;;10.04;100.00;101430.34;5241171;28;20026;-74
2024/03/14 01:29:12;;;;;;;15.20;9.75;;;;;;;9.99;100.00;101429.94;5250282;28;20036;-74
2024/03/14 01:31:43;;;;;;;18.23;9.63;;;;;;;9.99;100.00;101429.09;5251538;28;20028;-75
2024/03/14 01:34:13;;;;;;;18.65;10.75;;;;;;;10.02;100.00;101432.31;5254217;28;20427;-75
2024/03/14 01:36:44;;;;;;;17.17;9.70;;;;;;;10.07;100.00;101427.34;5248064;28;20016;-75
2024/03/14 01:39:16;;;;;;;21.05;9.85;;;;;;;10.13;100.00;101433.94;5238571;28;20021;-75
2024/03/14 01:41:47;;;;;;;14.20;9.00;;;;;;;10.13;100.00;101421.38;5247984;28;20028;-73
2024/03/14 01:44:20;;;;;;;21.80;10.85;;;;;;;10.14;100.00;101419.59;5253908;28;20508;-73
2024/03/14 01:46:51;;;;;;;19.00;9.75;;;;;;;10.14;100.00;101419.59;5246699;28;20117;-73
2024/03/14 01:49:21;;;;;;;16.98;10.35;;;;;;;10.17;100.00;101413.91;5242951;28;20021;-73
2024/03/14 01:51:52;;;;;;;15.20;9.77;;;;;;;10.25;100.00;101410.50;5248093;28;20725;-73
2024/03/14 01:54:23;;;;;;;15.52;8.88;;;;;;;10.25;100.00;101422.09;5244481;28;20031;-73
2024/03/14 01:56:57;;;;;;;16.75;9.82;;;;;;;10.23;100.00;101412.44;5246212;28;20025;-73
2024/03/14 01:59:28;;;;;;;14.68;9.30;;;;;;;10.16;100.00;101411.38;5251116;28;20099;-72
2024/03/14 02:01:59;;;;;;;15.23;9.05;;;;;;;10.08;100.00;101407.59;5245679;28;20096;-73
2024/03/14 02:04:52;;;;;;;16.10;8.70;;;;;;;10.01;100.00;101406.50;5254475;28;20483;-73
2024/03/14 02:07:27;;;;;;;16.05;9.10;;;;;;;9.94;100.00;101404.56;5253633;28;20051;-73
2024/03/14 02:09:57;;;;;;;14.32;9.15;;;;;;;9.84;100.00;101393.91;5250770;28;20485;-73
2024/03/14 02:12:28;;;;;;;14.23;8.57;;;;;;;9.81;100.00;101396.88;5255043;28;20028;-73
2024/03/14 02:15:02;;;;;;;14.02;8.73;;;;;;;9.74;100.00;101388.59;5252087;28;20028;-73
2024/03/14 02:17:35;;;;;;;16.15;9.85;;;;;;;9.69;100.00;101390.00;5259888;28;20107;-72
2024/03/14 02:20:13;;;;;;;15.00;9.73;;;;;;;9.63;100.00;101391.44;5255509;28;20020;-73
2024/03/14 02:22:44;;;;;;;18.38;9.63;;;;;;;9.54;100.00;101389.66;5247905;28;20028;-73
2024/03/14 02:25:15;;;;;;;14.93;9.25;;;;;;;9.48;100.00;101388.38;5259309;28;20036;-73
2024/03/14 02:27:45;;;;;;;17.48;8.73;;;;;;;9.44;100.00;101387.00;5250964;28;20043;-72
2024/03/14 02:30:16;;;;;;;15.88;8.68;;;;;;;9.38;100.00;101387.56;5257271;28;20032;-73
2024/03/14 02:32:47;;;;;;;15.27;10.02;;;;;;;9.34;100.00;101379.00;5258417;28;20028;-73
2024/03/14 02:35:18;;;;;;;18.17;9.57;;;;;;;9.39;100.00;101383.06;5251211;28;20615;-73
2024/03/14 02:37:49;;;;;;;19.90;10.30;;;;;;;9.38;100.00;101376.84;5248377;28;20043;-73
2024/03/14 02:40:19;;;;;;;17.60;9.60;;;;;;;9.37;100.00;101369.81;5248713;28;20024;-72
2024/03/14 02:42:50;;;;;;;18.48;9.90;;;;;;;9.36;100.00;101370.81;5252929;28;20025;-73
2024/03/14 02:45:21;;;;;;;15.45;9.98;;;;;;;9.37;100.00;101369.81;5262380;28;20027;-73
2024/03/14 02:47:51;;;;;;;16.50;9.70;;;;;;;9.40;100.00;101372.22;5254645;28;20359;-72
2024/03/14 02:50:22;;;;;;;16.13;9.68;;;;;;;9.41;100.00;101370.38;5252370;28;20428;-73
2024/03/14 02:52:53;;;;;;;17.25;9.40;;;;;;;9.43;100.00;101366.56;5251471;28;20386;-73
2024/03/14 02:55:25;;;;;;;17.65;9.88;;;;;;;9.41;100.00;101357.00;5257663;28;20020;-72
2024/03/14 02:57:56;;;;;;;22.17;9.75;;;;;;;9.39;100.00;101357.16;5255278;28;20385;-72
2024/03/14 03:00:26;;;;;;;19.88;9.82;;;;;;;9.37;100.00;101352.91;5254106;28;20028;-73
2024/03/14 03:02:57;;;;;;;18.40;9.85;;;;;;;9.36;100.00;101352.06;5253615;28;20029;-73
2024/03/14 03:05:28;;;;;;;20.17;9.45;;;;;;;9.37;100.00;101352.91;5254174;28;20050;-73
2024/03/14 03:07:59;;;;;;;19.55;10.15;;;;;;;9.42;100.00;101350.63;5253421;28;20482;-73
2024/03/14 03:10:30;;;;;;;16.75;9.85;;;;;;;9.42;100.00;101343.44;5256103;28;20035;-72
2024/03/14 03:13:01;;;;;;;18.17;9.55;;;;;;;9.51;100.00;101345.25;5255051;28;20036;-73
2024/03/14 03:15:32;;;;;;;19.35;9.52;;;;;;;9.58;100.00;101345.50;5249988;28;20028;-73
2024/03/14 03:18:03;;;;;;;14.93;8.63;;;;;;;9.58;100.00;101342.81;5256171;28;20094;-73
2024/03/14 03:20:33;;;;;;;14.57;8.27;;;;;;;9.60;100.00;101351.56;5252893;28;20032;-73
2024/03/14 03:23:10;;;;;;;14.77;8.43;;;;;;;9.65;100.00;101351.13;5257542;28;20107;-72
2024/03/14 03:25:43;;;;;;;17.05;9.20;;;;;;;9.71;100.00;101353.22;5250027;28;20058;-72
2024/03/14 03:28:13;;;;;;;15.05;8.90;;;;;;;9.77;100.00;101350.78;5256850;28;20419;-73
2024/03/14 03:30:44;;;;;;;12.98;7.78;;;;;;;9.82;100.00;101345.81;5251902;28;20020;-73
2024/03/14 03:33:17;;;;;;;12.80;7.47;;;;;;;9.97;100.00;101348.00;5255721;28;20031;-73
2024/03/14 03:35:47;;;;;;;13.65;7.68;;;;;;;10.06;100.00;101339.88;5257075;28;20058;-73
2024/03/14 03:38:18;;;;;;;15.23;7.60;;;;;;;10.11;100.00;101342.13;5256850;28;20024;-73
2024/03/14 03:40:48;;;;;;;12.05;6.78;;;;;;;10.17;100.00;101336.16;5248157;28;20034;-73
2024/03/14 03:43:19;;;;;;;13.98;6.95;;;;;;;10.18;100.00;101340.50;5254219;28;20026;-72
2024/03/14 03:45:49;;;;;;;14.32;7.03;;;;;;;10.19;100.00;101338.66;5254068;28;20027;-72
2024/03/14 03:48:20;;;;;;;11.88;6.90;;;;;;;10.28;100.00;101327.06;5254463;28;20035;-73
2024/03/14 03:50:50;;;;;;;11.05;6.57;;;;;;;10.26;100.00;101334.44;5255583;28;20012;-72
2024/03/14 03:53:21;;;;;;;13.38;6.30;;;;;;;10.27;100.00;101320.84;5253886;28;20027;-72
2024/03/14 03:55:52;;;;;;;10.13;6.05;;;;;;;10.30;100.00;101320.56;5255929;28;20023;-73
2024/03/14 03:58:22;;;;;;;11.77;7.38;;;;;;;10.29;100.00;101324.25;5254073;28;20044;-73
2024/03/14 04:00:54;;;;;;;11.13;6.10;;;;;;;10.26;100.00;101326.38;5253370;28;20030;-72
2024/03/14 04:03:24;;;;;;;13.60;6.63;;;;;;;10.23;100.00;101319.44;5248547;28;20016;-73
2024/03/14 04:05:55;;;;;;;11.88;7.00;;;;;;;10.27;100.00;101320.84;5249643;28;20024;-72
2024/03/14 04:08:26;;;;;;;9.82;6.28;;;;;;;10.27;100.00;101322.69;5258883;28;20030;-73
2024/03/14 04:10:57;;;;;;;10.82;6.30;;;;;;;10.24;100.00;101329.22;5249193;28;20554;-73
2024/03/14 04:13:28;;;;;;;11.30;5.97;;;;;;;10.26;100.00;101318.34;5253249;28;20023;-73
2024/03/14 04:16:00;;;;;;;10.13;6.07;;;;;;;10.20;100.00;101318.94;5252271;28;20028;-73
2024/03/14 04:18:31;;;;;;;10.48;6.43;;;;;;;10.19;100.00;101317.22;5257797;28;20476;-73
2024/03/14 04:21:02;;;;;;;11.40;6.10;;;;;;;10.13;100.00;101308.78;5253741;28;20482;-73
2024/03/14 04:23:33;;;;;;;14.25;6.78;;;;;;;10.13;100.00;101314.16;5258779;28;20035;-72
2024/03/14 04:26:03;;;;;;;10.27;6.38;;;;;;;10.13;100.00;101316.81;5255625;28;20020;-72
2024/03/14 04:28:34;;;;;;;14.68;6.38;;;;;;;10.11;100.00;101321.50;5246435;28;20478;-73
2024/03/14 04:31:05;;;;;;;12.57;6.47;;;;;;;10.15;100.00;101316.69;5254171;28;20028;-73
2024/03/14 04:33:35;;;;;;;17.63;6.88;;;;;;;10.10;100.00;101319.00;5251851;28;20070;-72
2024/03/14 04:36:08;;;;;;;12.02;6.22;;;;;;;10.11;100.00;101320.66;5255563;28;20055;-73
2024/03/14 04:38:39;;;;;;;14.52;6.63;;;;;;;10.13;100.00;101326.72;5253631;28;20028;-73
2024/03/14 04:41:15;;;;;;;12.38;6.85;;;;;;;10.13;100.00;101316.00;5252232;28;20493;-72
2024/03/14 04:43:46;;;;;;;10.60;6.30;;;;;;;10.13;100.00;101322.19;5252476;28;20028;-72
2024/03/14 04:46:17;;;;;;;15.27;6.28;;;;;;;10.10;100.00;101305.59;5253044;28;20106;-73
2024/03/14 04:48:51;;;;;;;14.05;7.28;;;;;;;10.11;100.00;101309.94;5252841;28;20027;-72
2024/03/14 04:51:22;;;;;;;10.60;6.03;;;;;;;10.04;100.00;101315.09;5254767;28;20355;-73
2024/03/14 04:53:52;;;;;;;9.85;5.68;;;;;;;9.89;100.00;101311.22;5253320;28;20474;-72
2024/03/14 04:56:23;;;;;;;10.23;5.80;;;;;;;9.81;100.00;101313.81;5256666;28;20032;-73
2024/03/14 04:58:54;;;;;;;11.50;6.78;;;;;;;9.64;100.00;101314.59;5251954;28;20024;-72
2024/03/14 05:01:25;;;;;;;9.43;5.32;;;;;;;9.52;100.00;101311.28;5253712;28;20493;-73
2024/03/14 05:03:58;;;;;;;14.13;5.85;;;;;;;9.41;100.00;101309.63;5249713;28;20386;-72
2024/03/14 05:06:28;;;;;;;14.10;6.90;;;;;;;9.34;100.00;101306.72;5249345;28;20050;-71
2024/03/14 05:09:00;;;;;;;15.30;7.50;;;;;;;9.34;100.00;101316.56;5251637;28;20422;-73
2024/03/14 05:11:31;;;;;;;17.98;7.43;;;;;;;9.32;100.00;101314.03;5259617;28;20528;-72
2024/03/14 05:14:02;;;;;;;17.73;7.60;;;;;;;9.31;100.00;101314.19;5254380;28;20050;-73
2024/03/14 05:16:33;;;;;;;13.55;7.22;;;;;;;9.29;100.00;101318.84;5254908;28;20485;-73
2024/03/14 05:19:04;;;;;;;13.90;7.20;;;;;;;9.28;100.00;101309.94;5250473;28;20020;-73
2024/03/14 05:21:35;;;;;;;13.15;7.65;;;;;;;9.24;100.00;101310.41;5250074;28;20024;-72
2024/03/14 05:24:06;;;;;;;11.75;6.13;;;;;;;9.18;100.00;101303.78;5254832;28;20103;-73
2024/03/14 05:26:36;;;;;;;12.15;6.63;;;;;;;9.07;100.00;101303.97;5252499;28;20099;-72
2024/03/14 05:29:07;;;;;;;13.07;6.70;;;;;;;9.00;100.00;101300.19;5253161;28;20044;-73
2024/03/14 05:31:37;;;;;;;12.70;6.47;;;;;;;8.97;100.00;101295.97;5249936;28;20042;-73
2024/03/14 05:34:08;;;;;;;15.48;7.55;;;;;;;8.98;100.00;101300.31;5255544;28;20080;-73
2024/03/14 05:36:39;;;;;;;19.70;7.72;;;;;;;9.00;100.00;101301.03;5254389;28;20024;-71
2024/03/14 05:39:09;;;;;;;17.05;7.82;;;;;;;9.03;100.00;101297.22;5248808;28;20077;-72
2024/03/14 05:41:40;;;;;;;13.98;7.30;;;;;;;9.01;100.00;101289.34;5252147;28;20107;-73
2024/03/14 05:44:11;;;;;;;16.83;8.18;;;;;;;8.97;100.00;101298.63;5253408;28;20016;-72
2024/03/14 05:46:41;;;;;;;17.15;7.53;;;;;;;8.95;100.00;101295.28;5251766;28;20481;-72
2024/03/14 05:49:12;;;;;;;17.13;8.13;;;;;;;8.95;100.00;101295.28;5252618;28;20048;-73
2024/03/14 05:51:42;;;;;;;20.48;8.23;;;;;;;9.01;100.00;101300.03;5248381;28;20024;-73
2024/03/14 05:54:13;;;;;;;18.67;8.43;;;;;;;8.99;100.00;101298.50;5247108;28;20039;-73
2024/03/14 05:56:43;;;;;;;17.88;9.15;;;;;;;9.01;100.00;101292.00;5254559;28;20390;-73
2024/03/14 05:59:14;;;;;;;18.67;9.23;;;;;;;9.06;100.00;101300.44;5257469;28;20088;-73
2024/03/14 06:01:45;;;;;;;14.82;7.40;;;;;;;9.02;100.00;101298.22;5253499;28;20020;-73
2024/03/14 06:04:15;;;;;;;19.25;7.15;;;;;;;8.99;100.00;101296.69;5252386;28;20020;-73
2024/03/14 06:06:46;;;;;;;14.10;7.55;;;;;;;8.88;100.00;101298.66;5252593;28;20140;-73
2024/03/14 06:09:17;;;;;;;15.68;7.07;;;;;;;8.78;100.00;101298.69;5253777;28;20123;-73
2024/03/14 06:11:48;;;;;;;18.30;8.23;;;;;;;8.73;100.00;101296.44;5247766;28;20024;-73
2024/03/14 06:14:18;;;;;;;18.20;8.25;;;;;;;8.73;100.00;101300.94;5251406;28;20057;-71
2024/03/14 06:16:49;;;;;;;17.20;8.02;;;;;;;8.73;100.00;101303.63;5245335;28;20020;-73
2024/03/14 06:19:21;;;;;;;20.92;8.07;;;;;;;8.86;100.00;101304.16;5253178;28;20031;-72
2024/03/14 06:21:52;;;;;;;12.95;7.68;;;;;;;8.98;100.00;101305.66;5252213;28;20445;-72
2024/03/14 06:24:23;;;;;;;19.20;8.93;;;;;;;9.05;100.00;101317.50;5246725;28;20024;-73
2024/03/14 06:26:53;;;;;;;20.50;9.10;;;;;;;9.19;100.00;101316.22;5254889;28;20017;-73
2024/03/14 06:29:24;;;;;;;18.17;9.27;;;;;;;9.28;100.00;101317.13;5254385;28;20056;-73
2024/03/14 06:31:54;;;;;;;18.00;8.02;;;;;;;9.33;100.00;101315.72;5254595;28;20468;-73
2024/03/14 06:34:25;;;;;;;17.70;8.98;;;;;;;9.40;100.00;101312.47;5259434;28;20024;-73
2024/03/14 06:36:56;;;;;;;15.13;7.20;;;;;;;9.48;100.00;101315.22;5252374;28;20021;-73
2024/03/14 06:39:26;;;;;;;14.77;7.57;;;;;;;9.55;100.00;101316.34;5251149;28;20019;-73
2024/03/14 06:41:57;;;;;;;15.60;7.78;;;;;;;9.63;100.00;101315.59;5243992;28;20029;-73
2024/03/14 06:44:28;;;;;;;14.20;7.82;;;;;;;9.75;100.00;101320.63;5255920;28;20107;-73
2024/03/14 06:46:58;;;;;;;13.93;7.38;;;;;;;9.89;100.00;101318.41;5248428;28;20036;-73
2024/03/14 06:49:31;;;;;;;13.65;6.88;;;;;;;10.03;100.00;101317.88;5243652;28;20386;-72
2024/03/14 06:52:05;;;;;;;14.38;7.70;;;;;;;10.40;100.00;101316.97;5241851;28;20174;-73
2024/03/14 06:54:36;;;;;;;18.25;7.88;;;;;;;10.74;100.00;101312.53;5238939;28;20025;-73
2024/03/14 06:57:09;;;;;;;15.07;7.53;;;;;;;11.05;100.00;101309.44;5255082;28;20020;-73
2024/03/14 06:59:41;;;;;;;13.15;6.47;;;;;;;11.54;100.00;101318.56;5252505;28;20036;-72
2024/03/14 07:02:11;;;;;;;13.50;6.75;;;;;;;11.87;100.00;101318.75;5246461;28;20028;-73
2024/03/14 07:04:42;;;;;;;15.27;6.78;;;;;;;12.12;100.00;101320.50;5247114;28;20508;-73
2024/03/14 07:07:13;;;;;;;8.73;5.50;;;;;;;12.07;100.00;101314.75;5253715;28;20507;-73
2024/03/14 07:09:45;;;;;;;10.77;5.28;;;;;;;12.18;100.00;101310.91;5260270;28;20028;-73
2024/03/14 07:12:16;;;;;;;10.10;4.97;;;;;;;12.16;100.00;101316.47;5251159;28;20023;-73
2024/03/14 07:14:46;;;;;;;9.30;4.72;;;;;;;11.99;100.00;101316.59;5254474;28;20585;-72
2024/03/14 07:17:18;;;;;;;8.98;4.95;;;;;;;11.76;100.00;101316.34;5258300;28;20086;-74
2024/03/14 07:19:48;;;;;;;10.25;4.80;;;;;;;11.49;100.00;101312.84;5258885;28;20466;-73
2024/03/14 07:22:22;;;;;;;6.82;4.70;;;;;;;11.40;100.00;101313.84;5258162;28;20508;-73
2024/03/14 07:24:53;;;;;;;6.72;4.45;;;;;;;11.43;100.00;101313.50;5253178;28;20107;-73
2024/03/14 07:27:23;;;;;;;9.48;4.85;;;;;;;11.78;100.00;101312.47;5256331;28;20111;-73
2024/03/14 07:29:54;;;;;;;8.10;4.22;;;;;;;12.23;100.00;101305.03;5252116;28;20455;-73
2024/03/14 07:32:25;;;;;;;7.20;3.63;;;;;;;12.84;100.00;101306.41;5257011;28;20020;-73
2024/03/14 07:34:56;;;;;;;7.38;3.55;;;;;;;13.33;100.00;101304.50;5246686;28;20082;-73
2024/03/14 07:37:27;;;;;;;6.65;3.67;;;;;;;13.66;100.00;101310.63;5258835;28;20031;-73
2024/03/14 07:39:57;;;;;;;6.32;3.20;;;;;;;13.63;100.00;101312.81;5254947;28;20473;-73
2024/03/14 07:42:29;;;;;;;4.47;2.63;;;;;;;14.18;100.00;101303.75;5254513;28;20051;-74
2024/03/14 07:45:00;;;;;;;6.75;4.13;;;;;;;14.60;100.00;101297.06;5257829;28;20025;-74
2024/03/14 07:47:31;;;;;;;5.95;3.40;;;;;;;14.57;100.00;101305.53;5255151;28;20499;-74
2024/03/14 07:50:02;;;;;;;5.43;3.35;;;;;;;14.90;100.00;101297.97;5252465;28;20144;-74
2024/03/14 07:52:33;;;;;;;7.45;3.38;;;;;;;14.88;100.00;101303.56;5253316;28;20024;-74
2024/03/14 07:55:06;;;;;;;6.30;2.78;;;;;;;15.05;100.00;101298.00;5255092;28;20081;-74
2024/03/14 07:57:37;;;;;;;4.68;3.08;;;;;;;15.22;100.00;101300.34;5257047;28;20027;-73
2024/03/14 08:00:09;;;;;;;4.57;2.83;;;;;;;15.32;100.00;101297.38;5253383;28;20020;-74
2024/03/14 08:02:39;;;;;;;3.88;2.47;;;;;;;15.35;100.00;101291.56;5253228;28;20149;-74
2024/03/14 08:05:11;;;;;;;6.22;2.40;;;;;;;15.35;100.00;101290.72;5252046;28;20028;-73
2024/03/14 08:07:43;;;;;;;6.80;2.22;;;;;;;15.46;100.00;101292.97;5253614;28;20028;-74
2024/03/14 08:10:13;;;;;;;6.40;2.67;;;;;;;15.67;100.00;101290.38;5252338;28;20064;-74
2024/03/14 08:12:44;;;;;;;5.20;2.60;;;;;;;15.63;100.00;101290.91;5252018;28;20027;-74
2024/03/14 08:15:30;;;;;;;3.30;2.00;;;;;;;15.64;100.00;101290.75;5259401;28;20024;-74
2024/03/14 08:18:04;;;;;;;4.35;2.53;;;;;;;15.76;100.00;101293.78;5255422;28;20028;-75
2024/03/14 08:20:37;;;;;;;4.60;2.03;;;;;;;15.61;100.00;101290.25;5252197;28;20044;-75
2024/03/14 08:23:08;;;;;;;3.50;2.20;;;;;;;15.82;100.00;101286.81;5255899;28;20032;-75
2024/03/14 08:25:41;;;;;;;5.32;2.17;;;;;;;15.64;100.00;101295.31;5253769;28;20034;-75
2024/03/14 08:28:11;;;;;;;3.88;2.00;;;;;;;15.95;100.00;101289.66;5256201;28;20028;-75
2024/03/14 08:30:44;;;;;;;7.05;2.60;;;;;;;15.98;100.00;101289.28;5251389;28;20401;-75
2024/03/14 08:33:15;;;;;;;4.38;2.25;;;;;;;16.03;100.00;101289.56;5255329;28;20016;-75
2024/03/14 08:35:46;;;;;;;7.53;2.15;;;;;;;15.69;100.00;101282.91;5248757;28;20043;-75
2024/03/14 08:38:16;;;;;;;3.35;2.10;;;;;;;16.31;100.00;101279.66;5253132;28;20024;-75
2024/03/14 08:40:47;;;;;;;5.07;1.92;;;;;;;16.18;100.00;101281.38;5251954;28;20086;-75
2024/03/14 08:43:18;;;;;;;4.50;2.10;;;;;;;16.58;100.00;101279.88;5253895;28;20032;-75
2024/03/14 08:45:50;;;;;;;5.93;2.20;;;;;;;16.76;100.00;101274.84;5255536;28;20752;-76
2024/03/14 08:48:21;;;;;;;5.47;2.17;;;;;;;16.87;100.00;101284.34;5254298;28;20023;-75
2024/03/14 08:50:52;;;;;;;2.85;1.60;;;;;;;17.08;100.00;101284.28;5252812;28;20466;-75
2024/03/14 08:53:22;;;;;;;7.90;2.20;;;;;;;17.07;100.00;101284.47;5252859;28;20446;-75
2024/03/14 08:55:54;;;;;;;3.47;1.60;;;;;;;17.30;100.00;101285.03;5251153;28;20023;-76
2024/03/14 08:58:25;;;;;;;4.47;2.33;;;;;;;17.33;100.00;101281.09;5251734;28;20016;-76
2024/03/14 09:00:56;;;;;;;2.97;1.80;;;;;;;17.30;100.00;101286.91;5249654;28;20486;-76
2024/03/14 09:03:27;;;;;;;4.35;1.95;;;;;;;16.43;100.00;101281.84;5253219;28;20054;-76
2024/03/14 09:05:58;;;;;;;8.23;2.33;;;;;;;16.03;100.00;101284.13;5246232;28;20379;-75
2024/03/14 09:08:30;;;;;;;3.17;2.13;;;;;;;15.88;100.00;101280.63;5251013;28;20031;-75
2024/03/14 09:11:03;;;;;;;3.15;1.50;;;;;;;15.98;100.00;101275.75;5255719;28;20028;-76
2024/03/14 09:13:36;;;;;;;3.35;1.90;;;;;;;16.27;100.00;101277.53;5250868;28;20545;-75
2024/03/14 09:16:06;;;;;;;4.60;1.90;;;;;;;16.60;100.00;101274.28;5267852;28;20070;-75
2024/03/14 09:18:37;;;;;;;4.32;1.90;;;;;;;16.60;100.00;101279.69;5253005;28;20020;-76
2024/03/14 09:21:09;;;;;;;8.70;1.45;;;;;;;16.04;100.00;101270.41;5250468;28;20046;-75
2024/03/14 09:23:39;;;;;;;6.07;2.10;;;;;;;16.16;100.00;101273.44;5250938;28;20054;-75
2024/03/14 09:26:10;;;;;;;4.43;1.90;;;;;;;16.33;100.00;101268.63;5252695;28;20482;-75
2024/03/14 09:28:43;;;;;;;3.00;1.85;;;;;;;16.31;100.00;101268.81;5251251;28;20443;-75
2024/03/14 09:31:14;;;;;;;3.15;1.90;;;;;;;16.35;100.00;101261.13;5252505;28;20032;-75
2024/03/14 09:33:44;;;;;;;4.18;2.00;;;;;;;16.54;100.00;101265.06;5249539;28;20452;-75
2024/03/14 09:36:15;;;;;;;4.45;1.75;;;;;;;17.19;100.00;101265.78;5259292;28;20028;-75
2024/03/14 09:38:46;;;;;;;4.63;2.05;;;;;;;17.73;100.00;101260.44;5248253;28;20018;-75
2024/03/14 09:41:17;;;;;;;4.70;1.70;;;;;;;17.82;100.00;101263.78;5256242;28;20505;-75
2024/03/14 09:43:48;;;;;;;3.85;1.85;;;;;;;17.46;100.00;101254.00;5247991;28;20024;-75
2024/03/14 09:46:24;;;;;;;3.53;1.30;;;;;;;17.76;100.00;101261.88;5254239;28;20137;-75
2024/03/14 09:48:56;;;;;;;4.97;2.00;;;;;;;17.63;100.00;101259.13;5251769;28;20025;-75
2024/03/14 09:51:27;;;;;;;3.42;1.60;;;;;;;17.93;100.00;101254.25;5245565;28;20107;-75
2024/03/14 09:54:00;;;;;;;6.00;1.90;;;;;;;18.22;100.00;101253.03;5250629;28;20091;-76
2024/03/14 09:56:30;;;;;;;5.10;1.80;;;;;;;18.21;100.00;101251.34;5253614;28;20105;-76
2024/03/14 09:59:01;;;;;;;5.15;1.63;;;;;;;18.17;100.00;101247.38;5247557;28;20024;-76
2024/03/14 10:01:31;;;;;;;3.72;1.73;;;;;;;18.30;100.00;101241.97;5250183;28;20103;-75
2024/03/14 10:04:02;;;;;;;2.13;1.20;;;;;;;18.55;100.00;101250.34;5251185;28;20025;-76
2024/03/14 10:06:32;;;;;;;5.75;1.75;;;;;;;18.40;100.00;101250.53;5254004;28;20031;-75
2024/03/14 10:09:09;;;;;;;2.30;1.25;;;;;;;18.34;100.00;101252.22;5260459;28;20024;-75
2024/03/14 10:11:40;;;;;;;4.35;1.67;;;;;;;18.70;100.00;101240.13;5250045;28;20103;-75
2024/03/14 10:14:22;;;;;;;6.20;2.00;;;;;;;18.97;100.00;101248.22;5250281;28;20053;-76
2024/03/14 10:16:52;;;;;;;3.15;1.60;;;;;;;18.78;100.00;101237.19;5252356;28;20048;-76
2024/03/14 10:19:28;;;;;;;9.95;1.60;;;;;;;18.82;100.00;101238.44;5258408;28;20012;-76
2024/03/14 10:22:01;;;;;;;4.10;1.30;;;;;;;18.73;100.00;101230.72;5249039;28;20059;-75
2024/03/14 10:24:33;;;;;;;3.85;1.50;;;;;;;18.60;100.00;101226.09;5256319;28;20064;-75
2024/03/14 10:27:04;;;;;;;4.32;1.45;;;;;;;18.53;100.00;101222.56;5269321;28;20020;-75
2024/03/14 10:29:36;;;;;;;3.47;1.42;;;;;;;18.25;100.00;101217.31;5255183;28;20028;-75
2024/03/14 10:32:10;;;;;;;3.65;1.42;;;;;;;18.00;100.00;101222.50;5259344;28;20016;-75
2024/03/14 10:34:43;;;;;;;5.30;1.55;;;;;;;18.09;100.00;101221.28;5260066;28;20062;-76
2024/03/14 10:37:15;;;;;;;3.97;1.30;;;;;;;18.05;100.00;101220.00;5258726;28;20110;-75
2024/03/14 10:39:54;;;;;;;5.40;1.58;;;;;;;18.08;100.00;101214.16;5250306;28;20523;-75
2024/03/14 10:42:28;;;;;;;6.65;1.60;;;;;;;18.26;100.00;101203.50;5249183;28;20020;-75
2024/03/14 10:44:59;;;;;;;5.03;1.98;;;;;;;18.51;100.00;101208.31;5252371;28;20428;-76
2024/03/14 10:47:30;;;;;;;6.18;1.40;;;;;;;18.56;100.00;101205.81;5255977;28;20024;-76
2024/03/14 10:50:09;;;;;;;5.45;1.40;;;;;;;18.30;100.00;101195.81;5255185;28;20756;-76
2024/03/14 10:52:40;;;;;;;4.25;1.60;;;;;;;18.27;100.00;101186.22;5251674;28;20054;-76
2024/03/14 10:55:15;;;;;;;3.28;1.80;;;;;;;18.21;100.00;101189.72;5249019;28;20043;-76
2024/03/14 10:57:48;;;;;;;2.45;1.33;;;;;;;18.37;100.00;101189.34;5258255;28;20020;-78
2024/03/14 11:00:19;;;;;;;2.60;1.65;;;;;;;18.38;100.00;101192.88;5252424;28;20068;-76
2024/03/14 11:02:51;;;;;;;4.82;1.20;;;;;;;18.61;100.00;101181.56;5255167;28;20025;-76
2024/03/14 11:05:23;;;;;;;4.35;1.80;;;;;;;18.82;100.00;101180.50;5259665;28;20393;-76
2024/03/14 11:07:56;;;;;;;6.30;1.30;;;;;;;18.89;100.00;101184.06;5234901;28;20024;-76
2024/03/14 11:10:28;;;;;;;3.92;1.27;;;;;;;19.25;100.00;101185.41;5247515;28;20054;-77
2024/03/14 11:13:05;;;;;;;2.58;1.00;;;;;;;19.21;100.00;101168.69;5247284;28;20025;-77
2024/03/14 11:15:38;;;;;;;5.88;1.40;;;;;;;19.20;100.00;101163.47;5255937;28;20021;-77
2024/03/14 11:18:13;;;;;;;2.63;1.25;;;;;;;18.97;100.00;101158.53;5270478;28;20028;-76
2024/03/14 11:20:50;;;;;;;5.22;1.25;;;;;;;18.93;100.00;101155.41;5248259;28;20021;-77
2024/03/14 11:23:24;;;;;;;5.25;1.90;;;;;;;19.13;100.00;101153.47;5256222;28;20035;-76
2024/03/14 11:26:00;;;;;;;8.82;1.77;;;;;;;18.89;100.00;101143.28;5246576;28;20021;-77
2024/03/14 11:28:32;;;;;;;3.70;1.60;;;;;;;18.62;100.00;101143.34;5254885;28;20033;-77
2024/03/14 11:31:02;;;;;;;8.00;1.67;;;;;;;19.03;100.00;101135.94;5250803;28;20371;-77
2024/03/14 11:33:34;;;;;;;5.97;1.77;;;;;;;19.11;100.00;101143.84;5249924;28;20107;-79